sensor_id;sensor_type;location;lat;lon;timestamp;temperature;humidity
843;DHT22;407;48.884;9.126;2022-08-19T15:19:51;25.60;99.90
843;DHT22;407;48.884;9.126;2022-08-19T15:22:17;25.10;1.00
843;DHT22;407;48.884;9.126;2022-08-19T15:24:43;24.60;1.00
843;DHT22;407;48.884;9.126;2022-08-19T15:27:13;24.40;99.90
843;DHT22;407;48.884;9.126;2022-08-19T15:29:39;24.30;99.90
843;DHT22;407;48.884;9.126;2022-08-19T15:32:08;24.30;99.90
843;DHT22;407;48.884;9.126;2022-08-19T15:34:34;24.00;1.00
843;DHT22;407;48.884;9.126;2022-08-19T15:37:01;24.00;1.00
843;DHT22;407;48.884;9.126;2022-08-19T15:39:27;24.20;99.90
843;DHT22;407;48.884;9.126;2022-08-19T15:41:52;24.40;99.90
843;DHT22;407;48.884;9.126;2022-08-19T15:44:19;24.50;99.90
843;DHT22;407;48.884;9.126;2022-08-19T15:46:47;24.70;13.40
843;DHT22;407;48.884;9.126;2022-08-19T15:49:16;24.80;1.00
843;DHT22;407;48.884;9.126;2022-08-19T15:51:45;24.90;1.00
843;DHT22;407;48.884;9.126;2022-08-19T15:54:14;24.70;1.00
843;DHT22;407;48.884;9.126;2022-08-19T15:56:41;24.60;1.00
843;DHT22;407;48.884;9.126;2022-08-19T15:59:26;24.50;1.00
843;DHT22;407;48.884;9.126;2022-08-19T16:02:11;24.50;99.90
843;DHT22;407;48.884;9.126;2022-08-19T16:04:56;24.50;1.00
843;DHT22;407;48.884;9.126;2022-08-19T16:07:39;24.30;1.00
843;DHT22;407;48.884;9.126;2022-08-19T16:10:06;24.20;1.00
843;DHT22;407;48.884;9.126;2022-08-19T16:12:32;24.00;99.90
843;DHT22;407;48.884;9.126;2022-08-19T16:14:58;23.70;99.90
843;DHT22;407;48.884;9.126;2022-08-19T16:17:24;23.50;1.00
843;DHT22;407;48.884;9.126;2022-08-19T16:19:50;23.30;1.00
843;DHT22;407;48.884;9.126;2022-08-19T16:22:16;23.30;1.00
843;DHT22;407;48.884;9.126;2022-08-19T16:24:42;23.00;1.00
843;DHT22;407;48.884;9.126;2022-08-19T16:27:08;22.90;1.00
843;DHT22;407;48.884;9.126;2022-08-19T16:29:36;22.80;1.00
843;DHT22;407;48.884;9.126;2022-08-19T16:32:04;22.80;1.00
843;DHT22;407;48.884;9.126;2022-08-19T16:34:31;22.70;1.00
843;DHT22;407;48.884;9.126;2022-08-19T16:36:56;22.50;1.00
843;DHT22;407;48.884;9.126;2022-08-19T16:39:22;22.70;1.00
843;DHT22;407;48.884;9.126;2022-08-19T16:41:48;22.70;1.00
843;DHT22;407;48.884;9.126;2022-08-19T16:44:14;22.70;1.00
843;DHT22;407;48.884;9.126;2022-08-19T16:46:41;22.70;1.00
843;DHT22;407;48.884;9.126;2022-08-19T16:49:08;22.70;1.00
843;DHT22;407;48.884;9.126;2022-08-19T16:51:35;22.80;1.00
843;DHT22;407;48.884;9.126;2022-08-19T16:54:02;22.80;1.00
843;DHT22;407;48.884;9.126;2022-08-19T16:56:28;22.90;1.00
843;DHT22;407;48.884;9.126;2022-08-19T16:58:54;22.80;1.00
843;DHT22;407;48.884;9.126;2022-08-19T17:01:20;22.80;1.00
843;DHT22;407;48.884;9.126;2022-08-19T17:03:46;22.70;1.00
843;DHT22;407;48.884;9.126;2022-08-19T17:06:26;22.70;1.00
843;DHT22;407;48.884;9.126;2022-08-19T17:08:54;22.70;1.00
843;DHT22;407;48.884;9.126;2022-08-19T17:11:22;22.80;1.00
843;DHT22;407;48.884;9.126;2022-08-19T17:13:49;22.70;1.00
843;DHT22;407;48.884;9.126;2022-08-19T17:16:20;22.60;1.00
843;DHT22;407;48.884;9.126;2022-08-19T17:18:48;22.60;1.00
843;DHT22;407;48.884;9.126;2022-08-19T17:21:17;22.60;1.00
843;DHT22;407;48.884;9.126;2022-08-19T17:23:43;22.50;1.00
843;DHT22;407;48.884;9.126;2022-08-19T17:28:34;22.50;1.00
843;DHT22;407;48.884;9.126;2022-08-19T17:31:00;22.40;1.00
843;DHT22;407;48.884;9.126;2022-08-19T17:33:26;22.30;1.00
843;DHT22;407;48.884;9.126;2022-08-19T17:35:51;22.20;1.00
843;DHT22;407;48.884;9.126;2022-08-19T17:38:20;22.20;1.00
843;DHT22;407;48.884;9.126;2022-08-19T17:40:46;22.10;1.00
843;DHT22;407;48.884;9.126;2022-08-19T17:43:13;22.10;1.00
843;DHT22;407;48.884;9.126;2022-08-19T17:45:40;22.00;1.00
843;DHT22;407;48.884;9.126;2022-08-19T17:48:06;22.00;1.00
843;DHT22;407;48.884;9.126;2022-08-19T17:50:33;22.00;1.00
843;DHT22;407;48.884;9.126;2022-08-19T17:52:59;22.10;1.00
843;DHT22;407;48.884;9.126;2022-08-19T17:55:26;22.10;1.00
843;DHT22;407;48.884;9.126;2022-08-19T17:57:52;22.10;1.00
843;DHT22;407;48.884;9.126;2022-08-19T18:00:19;21.80;1.00
843;DHT22;407;48.884;9.126;2022-08-19T18:02:51;22.10;1.00
843;DHT22;407;48.884;9.126;2022-08-19T18:05:23;22.20;1.00
843;DHT22;407;48.884;9.126;2022-08-19T18:07:53;22.20;1.00
843;DHT22;407;48.884;9.126;2022-08-19T18:10:20;22.10;1.00
843;DHT22;407;48.884;9.126;2022-08-19T18:12:47;22.20;1.00
843;DHT22;407;48.884;9.126;2022-08-19T18:15:13;22.00;1.00
843;DHT22;407;48.884;9.126;2022-08-19T18:17:39;22.00;1.00
843;DHT22;407;48.884;9.126;2022-08-19T18:20:08;21.90;10.20
843;DHT22;407;48.884;9.126;2022-08-19T18:22:37;21.90;5.60
843;DHT22;407;48.884;9.126;2022-08-19T18:25:08;21.90;15.80
843;DHT22;407;48.884;9.126;2022-08-19T18:27:34;21.70;41.90
843;DHT22;407;48.884;9.126;2022-08-19T18:30:00;21.80;30.80
843;DHT22;407;48.884;9.126;2022-08-19T18:32:28;21.80;27.70
843;DHT22;407;48.884;9.126;2022-08-19T18:35:00;21.90;1.00
843;DHT22;407;48.884;9.126;2022-08-19T18:37:26;21.90;1.30
843;DHT22;407;48.884;9.126;2022-08-19T18:39:51;21.90;1.00
843;DHT22;407;48.884;9.126;2022-08-19T18:42:41;21.90;15.90
843;DHT22;407;48.884;9.126;2022-08-19T18:45:26;21.80;21.10
843;DHT22;407;48.884;9.126;2022-08-19T18:48:10;21.90;11.10
843;DHT22;407;48.884;9.126;2022-08-19T18:50:56;21.80;13.30
843;DHT22;407;48.884;9.126;2022-08-19T18:53:22;21.80;21.60
843;DHT22;407;48.884;9.126;2022-08-19T18:55:48;21.80;14.20
843;DHT22;407;48.884;9.126;2022-08-19T18:58:18;21.90;6.50
843;DHT22;407;48.884;9.126;2022-08-19T19:00:43;21.90;6.80
843;DHT22;407;48.884;9.126;2022-08-19T19:03:09;21.80;1.00
843;DHT22;407;48.884;9.126;2022-08-19T19:05:35;21.80;1.00
843;DHT22;407;48.884;9.126;2022-08-19T19:08:01;21.70;1.00
843;DHT22;407;48.884;9.126;2022-08-19T19:10:27;21.80;1.00
843;DHT22;407;48.884;9.126;2022-08-19T19:12:53;21.80;1.00
843;DHT22;407;48.884;9.126;2022-08-19T19:17:44;21.90;1.00
843;DHT22;407;48.884;9.126;2022-08-19T19:22:36;21.60;1.00
843;DHT22;407;48.884;9.126;2022-08-19T19:25:03;21.60;1.00
843;DHT22;407;48.884;9.126;2022-08-19T19:27:29;21.60;1.00
843;DHT22;407;48.884;9.126;2022-08-19T19:29:54;21.60;1.00
843;DHT22;407;48.884;9.126;2022-08-19T19:34:48;21.80;1.00
843;DHT22;407;48.884;9.126;2022-08-19T19:37:14;21.90;1.00
843;DHT22;407;48.884;9.126;2022-08-19T19:39:41;22.00;1.00
843;DHT22;407;48.884;9.126;2022-08-19T19:42:09;22.10;1.00
843;DHT22;407;48.884;9.126;2022-08-19T19:44:42;22.10;1.00
843;DHT22;407;48.884;9.126;2022-08-19T19:47:08;22.20;1.00
843;DHT22;407;48.884;9.126;2022-08-19T19:49:34;22.30;1.00
843;DHT22;407;48.884;9.126;2022-08-19T19:52:01;22.30;1.00
843;DHT22;407;48.884;9.126;2022-08-19T19:54:27;22.40;99.90
843;DHT22;407;48.884;9.126;2022-08-19T19:56:53;22.50;99.90
843;DHT22;407;48.884;9.126;2022-08-19T19:59:18;22.50;1.00
843;DHT22;407;48.884;9.126;2022-08-19T20:01:44;22.60;1.00
843;DHT22;407;48.884;9.126;2022-08-19T20:04:16;22.80;1.00
843;DHT22;407;48.884;9.126;2022-08-19T20:06:43;22.80;99.90
843;DHT22;407;48.884;9.126;2022-08-19T20:09:09;22.80;1.00
843;DHT22;407;48.884;9.126;2022-08-19T20:11:53;22.80;99.90
843;DHT22;407;48.884;9.126;2022-08-19T20:16:49;22.80;1.00
843;DHT22;407;48.884;9.126;2022-08-19T20:19:18;22.90;1.00
843;DHT22;407;48.884;9.126;2022-08-19T20:21:46;23.00;1.00
843;DHT22;407;48.884;9.126;2022-08-19T20:24:21;22.90;1.00
843;DHT22;407;48.884;9.126;2022-08-19T20:26:48;22.90;99.90
843;DHT22;407;48.884;9.126;2022-08-19T20:29:15;23.00;99.90
843;DHT22;407;48.884;9.126;2022-08-19T20:31:42;23.30;99.90
843;DHT22;407;48.884;9.126;2022-08-19T20:34:08;23.10;1.00
843;DHT22;407;48.884;9.126;2022-08-19T20:36:35;23.20;57.40
843;DHT22;407;48.884;9.126;2022-08-19T20:39:02;23.30;1.00
843;DHT22;407;48.884;9.126;2022-08-19T20:41:28;23.30;1.00
843;DHT22;407;48.884;9.126;2022-08-19T20:43:54;23.40;1.00
843;DHT22;407;48.884;9.126;2022-08-19T20:48:47;23.30;1.00
843;DHT22;407;48.884;9.126;2022-08-19T20:51:13;23.30;99.90
843;DHT22;407;48.884;9.126;2022-08-19T20:53:40;23.30;99.90
843;DHT22;407;48.884;9.126;2022-08-19T20:56:06;23.40;99.90
843;DHT22;407;48.884;9.126;2022-08-19T20:58:32;23.30;99.90
843;DHT22;407;48.884;9.126;2022-08-19T21:01:00;23.40;99.90
843;DHT22;407;48.884;9.126;2022-08-19T21:03:28;23.40;99.90
843;DHT22;407;48.884;9.126;2022-08-19T21:05:55;23.40;99.90
843;DHT22;407;48.884;9.126;2022-08-19T21:08:22;23.40;99.90
843;DHT22;407;48.884;9.126;2022-08-19T21:10:49;23.50;99.90
843;DHT22;407;48.884;9.126;2022-08-19T21:13:16;23.40;99.90
843;DHT22;407;48.884;9.126;2022-08-19T21:15:43;23.50;99.90
843;DHT22;407;48.884;9.126;2022-08-19T21:18:10;23.50;99.90
843;DHT22;407;48.884;9.126;2022-08-19T21:20:37;23.60;99.90
843;DHT22;407;48.884;9.126;2022-08-19T21:23:05;23.50;99.90
843;DHT22;407;48.884;9.126;2022-08-19T21:25:30;23.40;99.90
843;DHT22;407;48.884;9.126;2022-08-19T21:27:56;23.50;99.90
843;DHT22;407;48.884;9.126;2022-08-19T21:30:22;23.40;99.90
843;DHT22;407;48.884;9.126;2022-08-19T21:32:47;23.70;99.90
843;DHT22;407;48.884;9.126;2022-08-19T21:35:15;23.40;99.90
843;DHT22;407;48.884;9.126;2022-08-19T21:37:41;23.40;99.90
843;DHT22;407;48.884;9.126;2022-08-19T21:40:07;23.30;99.90
843;DHT22;407;48.884;9.126;2022-08-19T21:42:33;23.20;99.90
843;DHT22;407;48.884;9.126;2022-08-19T21:44:58;23.20;99.90
843;DHT22;407;48.884;9.126;2022-08-19T21:47:24;23.20;99.90
843;DHT22;407;48.884;9.126;2022-08-19T21:49:50;23.20;99.90
843;DHT22;407;48.884;9.126;2022-08-19T21:52:23;23.10;1.00
843;DHT22;407;48.884;9.126;2022-08-19T21:54:49;22.80;1.00
843;DHT22;407;48.884;9.126;2022-08-19T21:57:15;23.10;1.00
843;DHT22;407;48.884;9.126;2022-08-19T21:59:40;23.00;1.00
843;DHT22;407;48.884;9.126;2022-08-19T22:02:06;23.00;1.00
843;DHT22;407;48.884;9.126;2022-08-19T22:04:37;22.90;1.00
843;DHT22;407;48.884;9.126;2022-08-19T22:07:10;22.90;1.00
843;DHT22;407;48.884;9.126;2022-08-19T22:09:40;22.90;1.00
843;DHT22;407;48.884;9.126;2022-08-19T22:14:35;23.00;1.00
843;DHT22;407;48.884;9.126;2022-08-19T22:17:01;22.90;1.00
843;DHT22;407;48.884;9.126;2022-08-19T22:19:27;22.90;1.00
843;DHT22;407;48.884;9.126;2022-08-19T22:21:55;22.80;1.00
843;DHT22;407;48.884;9.126;2022-08-19T22:24:23;22.80;8.80
843;DHT22;407;48.884;9.126;2022-08-19T22:26:49;22.70;13.80
843;DHT22;407;48.884;9.126;2022-08-19T22:29:15;22.70;52.80
843;DHT22;407;48.884;9.126;2022-08-19T22:31:42;22.70;99.90
843;DHT22;407;48.884;9.126;2022-08-19T22:34:08;22.60;99.90
843;DHT22;407;48.884;9.126;2022-08-19T22:36:35;22.60;99.90
843;DHT22;407;48.884;9.126;2022-08-19T22:39:00;22.60;99.90
843;DHT22;407;48.884;9.126;2022-08-19T22:41:27;22.60;99.90
843;DHT22;407;48.884;9.126;2022-08-19T22:43:53;22.50;99.90
843;DHT22;407;48.884;9.126;2022-08-19T22:48:46;22.50;99.90
843;DHT22;407;48.884;9.126;2022-08-19T22:51:12;22.50;99.90
843;DHT22;407;48.884;9.126;2022-08-19T22:58:49;22.50;99.90
843;DHT22;407;48.884;9.126;2022-08-19T23:01:16;22.40;99.90
843;DHT22;407;48.884;9.126;2022-08-19T23:03:42;22.40;99.90
843;DHT22;407;48.884;9.126;2022-08-19T23:06:08;22.40;99.90
843;DHT22;407;48.884;9.126;2022-08-19T23:08:34;22.30;1.00
843;DHT22;407;48.884;9.126;2022-08-19T23:13:27;22.20;1.00
843;DHT22;407;48.884;9.126;2022-08-19T23:15:56;22.20;1.00
843;DHT22;407;48.884;9.126;2022-08-19T23:18:22;22.20;1.00
843;DHT22;407;48.884;9.126;2022-08-19T23:20:48;22.20;1.00
843;DHT22;407;48.884;9.126;2022-08-19T23:23:15;22.00;1.00
843;DHT22;407;48.884;9.126;2022-08-19T23:25:45;21.90;99.90
843;DHT22;407;48.884;9.126;2022-08-19T23:28:11;21.90;99.90
843;DHT22;407;48.884;9.126;2022-08-19T23:30:56;21.80;99.90
843;DHT22;407;48.884;9.126;2022-08-19T23:33:28;21.80;1.00
843;DHT22;407;48.884;9.126;2022-08-19T23:36:00;21.80;1.00
843;DHT22;407;48.884;9.126;2022-08-19T23:38:29;21.70;1.00
843;DHT22;407;48.884;9.126;2022-08-19T23:40:56;21.60;99.90
843;DHT22;407;48.884;9.126;2022-08-19T23:45:49;21.40;99.90
843;DHT22;407;48.884;9.126;2022-08-19T23:48:15;21.30;1.00
843;DHT22;407;48.884;9.126;2022-08-19T23:50:42;21.20;1.00
843;DHT22;407;48.884;9.126;2022-08-19T23:53:09;21.20;1.00
843;DHT22;407;48.884;9.126;2022-08-19T23:55:38;21.20;1.00
843;DHT22;407;48.884;9.126;2022-08-19T23:58:04;21.10;1.00
